Decoded Metar for VTUO (BURIRUM in THAILAND) (IATA:N/A) | Meteo·Mobile Aviation Weather
aviador You're here:

VTUO Decoded Metar

BURIRUM in THAILAND
Report Time2019-10-22 13:00:00
UTC Time2019-10-22 13:58:12
Flight Rules vfr VFR
WindCalm
Visibility9000 m
Phenomena:N/A
Clouds:N/A
Expected CloudBase > 800 ft AGL from Temp-Dew spread
CeilingNone
Temp26°C (ISA +12)
Dew Point24°C (89% RH)
QNH1010 hPa
Density Alt2,503 ft
Elevation600 ft
Report Wrong Elevation
Raw Report
VTUO 221300Z 00000KT 9000 NSC 26/24 Q1010 NOSIG=

Extra information for VTUO:More info

Metar Taf Metar & Taf Last 4 Metars F.Rules Stats Wind Profile Meteogram Temp Stats Airport Information Weather charts Add Link Nearby VenuesMetar ALERT Operation Metar Decoded Social comments